createdAt,value
2022-09-15T00:00:02.709Z,16.84
2022-09-15T00:01:02.674Z,16.85
2022-09-15T00:02:02.653Z,16.86
2022-09-15T00:03:02.382Z,16.89
2022-09-15T00:04:02.725Z,16.90
2022-09-15T00:05:02.218Z,16.90
2022-09-15T00:06:02.757Z,16.89
2022-09-15T00:07:02.333Z,16.90
2022-09-15T00:08:02.280Z,16.94
2022-09-15T00:09:02.876Z,16.96
2022-09-15T00:10:02.608Z,16.95
2022-09-15T00:11:02.496Z,16.97
2022-09-15T00:12:02.357Z,16.95
2022-09-15T00:13:02.827Z,16.93
2022-09-15T00:14:02.585Z,16.91
2022-09-15T00:15:02.808Z,16.90
2022-09-15T00:16:02.465Z,16.90
2022-09-15T00:17:02.027Z,16.91
2022-09-15T00:18:02.021Z,16.91
2022-09-15T00:19:01.949Z,16.94
2022-09-15T00:20:01.994Z,16.88
2022-09-15T00:21:02.190Z,16.85
2022-09-15T00:22:01.938Z,16.87
2022-09-15T00:23:01.743Z,16.88
2022-09-15T00:24:01.958Z,16.90
2022-09-15T00:25:01.584Z,16.91
2022-09-15T00:26:02.077Z,16.87
2022-09-15T00:27:02.098Z,16.88
2022-09-15T00:28:01.999Z,16.87
2022-09-15T00:29:02.000Z,16.88
2022-09-15T00:30:01.867Z,16.89
2022-09-15T00:31:01.951Z,16.86
2022-09-15T00:32:02.976Z,16.86
2022-09-15T00:33:02.518Z,16.85
2022-09-15T00:34:02.613Z,16.86
2022-09-15T00:35:02.585Z,16.85
2022-09-15T00:36:02.772Z,16.84
2022-09-15T00:37:02.669Z,16.83
2022-09-15T00:38:02.958Z,16.83
2022-09-15T00:39:02.585Z,16.82
2022-09-15T00:40:02.783Z,16.77
2022-09-15T00:41:03.071Z,16.76
2022-09-15T00:42:02.452Z,16.74
2022-09-15T00:43:02.055Z,16.69
2022-09-15T00:44:02.046Z,16.67
2022-09-15T00:45:02.338Z,16.68
2022-09-15T00:46:02.062Z,16.70
2022-09-15T00:47:18.696Z,16.62
2022-09-15T00:48:03.011Z,16.59
2022-09-15T00:49:02.598Z,16.58
2022-09-15T00:50:02.774Z,16.56
2022-09-15T00:51:02.631Z,16.56
2022-09-15T00:52:02.020Z,16.58
2022-09-15T00:53:02.047Z,16.59
2022-09-15T00:54:02.468Z,16.61
2022-09-15T00:55:02.396Z,16.63
2022-09-15T00:56:02.192Z,16.66
2022-09-15T00:57:02.780Z,16.68
2022-09-15T00:58:02.487Z,16.69
2022-09-15T00:59:02.908Z,16.69
2022-09-15T01:00:02.916Z,16.70
2022-09-15T01:01:02.981Z,16.72
2022-09-15T01:02:02.639Z,16.71
2022-09-15T01:03:02.046Z,16.73
2022-09-15T01:04:02.212Z,16.73
2022-09-15T01:05:02.118Z,16.74
2022-09-15T01:06:02.662Z,16.74
2022-09-15T01:07:02.827Z,16.68
2022-09-15T01:08:02.610Z,16.63
2022-09-15T01:09:02.899Z,16.60
2022-09-15T01:10:03.239Z,16.59
2022-09-15T01:11:03.014Z,16.57
2022-09-15T01:12:02.521Z,16.58
2022-09-15T01:13:02.906Z,16.56
2022-09-15T01:14:02.395Z,16.55
2022-09-15T01:15:02.394Z,16.55
2022-09-15T01:16:02.746Z,16.55
2022-09-15T01:17:02.834Z,16.54
2022-09-15T01:18:02.699Z,16.53
2022-09-15T01:19:02.844Z,16.54
2022-09-15T01:20:02.980Z,16.54
2022-09-15T01:21:02.560Z,16.56
2022-09-15T01:22:02.782Z,16.55
2022-09-15T01:23:02.680Z,16.54
2022-09-15T01:24:02.928Z,16.49
2022-09-15T01:25:02.936Z,16.47
2022-09-15T01:26:03.222Z,16.45
2022-09-15T01:27:13.855Z,16.42
2022-09-15T01:28:02.886Z,16.44
2022-09-15T01:29:02.420Z,16.47
2022-09-15T01:30:03.009Z,16.48
2022-09-15T01:31:02.743Z,16.51
2022-09-15T01:32:02.993Z,16.54
2022-09-15T01:33:02.770Z,16.54
2022-09-15T01:34:03.092Z,16.56
2022-09-15T01:35:03.254Z,16.52
2022-09-15T01:36:02.971Z,16.52
2022-09-15T01:37:02.360Z,16.53
2022-09-15T01:38:02.985Z,16.54
2022-09-15T01:39:02.630Z,16.54
2022-09-15T01:40:02.468Z,16.55
2022-09-15T01:41:02.621Z,16.56
2022-09-15T01:42:02.168Z,16.59
2022-09-15T01:43:02.182Z,16.60
2022-09-15T01:44:02.246Z,16.62
2022-09-15T01:45:02.311Z,16.63
2022-09-15T01:46:02.597Z,16.65
2022-09-15T01:47:02.764Z,16.64
2022-09-15T01:48:02.443Z,16.60
2022-09-15T01:49:02.413Z,16.56
2022-09-15T01:50:02.639Z,16.54
2022-09-15T01:51:02.632Z,16.51
2022-09-15T01:52:02.964Z,16.47
2022-09-15T01:53:03.174Z,16.44
2022-09-15T01:54:02.746Z,16.40
2022-09-15T01:55:02.970Z,16.40
2022-09-15T01:56:03.037Z,16.42
2022-09-15T01:57:02.187Z,16.40
2022-09-15T01:58:02.288Z,16.38
2022-09-15T01:59:02.777Z,16.35
2022-09-15T02:00:02.311Z,16.29
2022-09-15T02:01:02.238Z,16.27
2022-09-15T02:02:02.804Z,16.25
2022-09-15T02:03:02.645Z,16.20
2022-09-15T02:04:03.004Z,16.20
2022-09-15T02:05:03.041Z,16.19
2022-09-15T02:06:02.960Z,16.19
2022-09-15T02:07:03.093Z,16.19
2022-09-15T02:08:03.373Z,16.18
2022-09-15T02:09:02.915Z,16.19
2022-09-15T02:10:02.923Z,16.18
2022-09-15T02:11:03.005Z,16.15
2022-09-15T02:12:02.965Z,16.13
2022-09-15T02:13:02.592Z,16.10
2022-09-15T02:14:03.095Z,16.08
2022-09-15T02:15:03.213Z,16.09
2022-09-15T02:16:03.060Z,16.08
2022-09-15T02:17:02.495Z,16.06
2022-09-15T02:18:02.378Z,16.04
2022-09-15T02:19:02.597Z,16.02
2022-09-15T02:20:02.613Z,16.00
2022-09-15T02:21:02.293Z,15.96
2022-09-15T02:22:02.973Z,15.97
2022-09-15T02:23:03.063Z,15.99
2022-09-15T02:24:03.100Z,15.98
2022-09-15T02:25:03.043Z,15.99
2022-09-15T02:26:02.879Z,15.99
2022-09-15T02:27:02.426Z,15.99
2022-09-15T02:28:02.586Z,15.95
2022-09-15T02:29:02.760Z,15.94
2022-09-15T02:30:02.880Z,15.92
2022-09-15T02:31:02.900Z,15.90
2022-09-15T02:32:07.015Z,15.84
2022-09-15T02:33:02.765Z,15.83
2022-09-15T02:34:03.125Z,15.80
2022-09-15T02:35:02.735Z,15.80
2022-09-15T02:36:02.741Z,15.77
2022-09-15T02:37:03.376Z,15.72
2022-09-15T02:38:03.746Z,15.71
2022-09-15T02:39:03.481Z,15.72
2022-09-15T02:40:03.551Z,15.72
2022-09-15T02:41:03.315Z,15.72
2022-09-15T02:42:03.172Z,15.74
2022-09-15T02:43:03.103Z,15.75
2022-09-15T02:44:02.644Z,15.75
2022-09-15T02:45:03.172Z,15.75
2022-09-15T02:46:02.828Z,15.73
2022-09-15T02:47:02.271Z,15.74
2022-09-15T02:48:02.848Z,15.72
2022-09-15T02:49:02.594Z,15.71
2022-09-15T02:50:02.729Z,15.71
2022-09-15T02:51:02.839Z,15.70
2022-09-15T02:52:02.979Z,15.70
2022-09-15T02:53:02.606Z,15.71
2022-09-15T02:54:02.532Z,15.70
2022-09-15T02:55:02.994Z,15.67
2022-09-15T02:56:02.771Z,15.67
2022-09-15T02:57:03.367Z,15.68
2022-09-15T02:58:03.243Z,15.67
2022-09-15T02:59:03.232Z,15.67
2022-09-15T03:00:03.429Z,15.68
2022-09-15T03:01:03.329Z,15.65
2022-09-15T03:02:02.782Z,15.65
2022-09-15T03:03:02.985Z,15.66
2022-09-15T03:04:02.803Z,15.64
2022-09-15T03:05:02.747Z,15.66
2022-09-15T03:06:03.289Z,15.67
2022-09-15T03:07:02.390Z,15.66
2022-09-15T03:08:02.443Z,15.64
2022-09-15T03:09:02.839Z,15.66
2022-09-15T03:10:02.871Z,15.65
2022-09-15T03:11:02.430Z,15.66
2022-09-15T03:12:03.136Z,15.66
2022-09-15T03:13:02.864Z,15.67
2022-09-15T03:14:03.237Z,15.70
2022-09-15T03:15:03.301Z,15.71
2022-09-15T03:16:03.234Z,15.74
2022-09-15T03:17:03.168Z,15.74
2022-09-15T03:18:03.325Z,15.75
2022-09-15T03:19:03.144Z,15.74
2022-09-15T03:20:03.245Z,15.75
2022-09-15T03:21:02.929Z,15.75
2022-09-15T03:22:02.902Z,15.74
2022-09-15T03:23:03.455Z,15.74
2022-09-15T03:24:02.989Z,15.75
2022-09-15T03:25:03.025Z,15.76
2022-09-15T03:26:03.053Z,15.75
2022-09-15T03:27:02.410Z,15.76
2022-09-15T03:28:02.943Z,15.75
2022-09-15T03:29:02.714Z,15.75
2022-09-15T03:30:02.796Z,15.76
2022-09-15T03:31:03.030Z,15.74
2022-09-15T03:32:03.203Z,15.74
2022-09-15T03:33:02.902Z,15.74
2022-09-15T03:34:03.412Z,15.76
2022-09-15T03:35:03.164Z,15.76
2022-09-15T03:36:03.081Z,15.76
2022-09-15T03:37:03.106Z,15.77
2022-09-15T03:38:03.360Z,15.77
2022-09-15T03:39:03.680Z,15.78
2022-09-15T03:40:03.404Z,15.80
2022-09-15T03:41:03.667Z,15.81
2022-09-15T03:42:02.560Z,15.82
2022-09-15T03:43:02.626Z,15.84
2022-09-15T03:44:02.483Z,15.86
2022-09-15T03:45:02.422Z,15.86
2022-09-15T03:46:02.964Z,15.88
2022-09-15T03:47:03.494Z,15.87
2022-09-15T03:48:03.507Z,15.88
2022-09-15T03:49:02.995Z,15.90
2022-09-15T03:50:03.089Z,15.90
2022-09-15T03:51:02.962Z,15.92
2022-09-15T03:52:03.808Z,15.92
2022-09-15T03:53:03.271Z,15.94
2022-09-15T03:54:03.681Z,15.93
2022-09-15T03:55:03.733Z,15.89
2022-09-15T03:56:03.683Z,15.88
2022-09-15T03:57:02.950Z,15.85
2022-09-15T03:58:03.440Z,15.83
2022-09-15T03:59:03.379Z,15.82
2022-09-15T04:00:03.199Z,15.84
2022-09-15T04:01:03.407Z,15.85
2022-09-15T04:02:02.759Z,15.85
2022-09-15T04:03:03.121Z,15.85
2022-09-15T04:04:03.191Z,15.85
2022-09-15T04:05:02.886Z,15.84
2022-09-15T04:06:03.242Z,15.83
2022-09-15T04:07:02.007Z,15.85
2022-09-15T04:08:02.023Z,15.85
2022-09-15T04:09:02.242Z,15.86
2022-09-15T04:10:02.197Z,15.86
2022-09-15T04:11:02.508Z,15.80
2022-09-15T04:12:02.523Z,15.77
2022-09-15T04:13:02.094Z,15.73
2022-09-15T04:14:02.298Z,15.72
2022-09-15T04:15:02.527Z,15.68
2022-09-15T04:16:02.182Z,15.66
2022-09-15T04:17:02.290Z,15.65
2022-09-15T04:18:02.904Z,15.64
2022-09-15T04:19:02.850Z,15.65
2022-09-15T04:20:02.475Z,15.62
2022-09-15T04:21:02.757Z,15.58
2022-09-15T04:22:02.515Z,15.54
2022-09-15T04:23:02.464Z,15.52
2022-09-15T04:24:02.969Z,15.51
2022-09-15T04:25:02.688Z,15.52
2022-09-15T04:26:02.538Z,15.52
2022-09-15T04:27:02.537Z,15.53
2022-09-15T04:28:02.334Z,15.56
2022-09-15T04:29:04.654Z,15.57
2022-09-15T04:30:02.074Z,15.59
2022-09-15T04:31:02.622Z,15.59
2022-09-15T04:32:02.870Z,15.60
2022-09-15T04:33:02.593Z,15.60
2022-09-15T04:34:02.873Z,15.61
2022-09-15T04:35:02.941Z,15.62
2022-09-15T04:36:02.702Z,15.61
2022-09-15T04:37:02.612Z,15.63
2022-09-15T04:38:02.870Z,15.64
2022-09-15T04:39:03.228Z,15.64
2022-09-15T04:40:02.673Z,15.64
2022-09-15T04:41:02.891Z,15.63
2022-09-15T04:42:03.387Z,15.63
2022-09-15T04:43:03.029Z,15.63
2022-09-15T04:44:03.197Z,15.63
2022-09-15T04:45:02.936Z,15.63
2022-09-15T04:46:02.852Z,15.63
2022-09-15T04:47:02.986Z,15.63
2022-09-15T04:48:03.009Z,15.62
2022-09-15T04:49:02.696Z,15.61
2022-09-15T04:50:02.621Z,15.62
2022-09-15T04:51:02.583Z,15.60
2022-09-15T04:52:03.975Z,15.59
2022-09-15T04:53:02.528Z,15.58
2022-09-15T04:54:02.589Z,15.54
2022-09-15T04:55:02.361Z,15.51
2022-09-15T04:56:02.697Z,15.50
2022-09-15T04:57:02.787Z,15.49
2022-09-15T04:58:02.706Z,15.47
2022-09-15T04:59:04.137Z,15.49
2022-09-15T05:00:02.705Z,15.51
2022-09-15T05:01:03.108Z,15.51
2022-09-15T05:02:02.430Z,15.47
2022-09-15T05:03:02.056Z,15.47
2022-09-15T05:04:02.547Z,15.47
2022-09-15T05:05:02.228Z,15.46
2022-09-15T05:06:02.239Z,15.48
2022-09-15T05:07:03.003Z,15.47
2022-09-15T05:08:03.424Z,15.48
2022-09-15T05:09:07.629Z,15.48
2022-09-15T05:10:03.308Z,15.48
2022-09-15T05:11:02.897Z,15.45
2022-09-15T05:12:02.373Z,15.45
2022-09-15T05:13:02.223Z,15.45
2022-09-15T05:14:02.349Z,15.42
2022-09-15T05:15:02.353Z,15.42
2022-09-15T05:16:02.482Z,15.39
2022-09-15T05:17:02.863Z,15.39
2022-09-15T05:18:02.400Z,15.39
2022-09-15T05:19:02.652Z,15.41
2022-09-15T05:20:02.516Z,15.42
2022-09-15T05:21:02.842Z,15.46
2022-09-15T05:22:03.242Z,15.47
2022-09-15T05:23:03.140Z,15.45
2022-09-15T05:24:03.012Z,15.46
2022-09-15T05:25:02.726Z,15.47
2022-09-15T05:26:02.993Z,15.48
2022-09-15T05:27:03.130Z,15.47
2022-09-15T05:28:03.331Z,15.47
2022-09-15T05:29:02.822Z,15.48
2022-09-15T05:30:31.869Z,15.47
2022-09-15T05:31:02.866Z,15.50
2022-09-15T05:32:02.833Z,15.52
2022-09-15T05:33:02.509Z,15.53
2022-09-15T05:34:02.429Z,15.54
2022-09-15T05:35:02.696Z,15.54
2022-09-15T05:36:02.352Z,15.56
2022-09-15T05:37:03.205Z,15.55
2022-09-15T05:38:02.911Z,15.55
2022-09-15T05:39:03.349Z,15.57
2022-09-15T05:40:08.073Z,15.56
2022-09-15T05:41:03.076Z,15.57
2022-09-15T05:42:02.913Z,15.59
2022-09-15T05:43:02.646Z,15.59
2022-09-15T05:44:02.702Z,15.58
2022-09-15T05:45:02.666Z,15.58
2022-09-15T05:46:02.774Z,15.59
2022-09-15T05:47:02.845Z,15.60
2022-09-15T05:48:02.922Z,15.60
2022-09-15T05:49:03.147Z,15.60
2022-09-15T05:50:03.325Z,15.59
2022-09-15T05:51:03.085Z,15.59
2022-09-15T05:52:03.109Z,15.60
2022-09-15T05:53:03.387Z,15.60
2022-09-15T05:54:02.981Z,15.60
2022-09-15T05:55:03.235Z,15.60
2022-09-15T05:56:03.075Z,15.60
2022-09-15T05:57:03.253Z,15.60
2022-09-15T05:58:03.093Z,15.60
2022-09-15T05:59:03.137Z,15.61
2022-09-15T06:00:02.926Z,15.61
2022-09-15T06:01:03.092Z,15.64
2022-09-15T06:02:02.028Z,15.64
2022-09-15T06:03:02.537Z,15.65
2022-09-15T06:04:02.217Z,15.64
2022-09-15T06:05:02.070Z,15.65
2022-09-15T06:06:02.193Z,15.67
2022-09-15T06:07:02.985Z,15.68
2022-09-15T06:08:02.667Z,15.69
2022-09-15T06:09:03.063Z,15.73
2022-09-15T06:10:02.994Z,15.74
2022-09-15T06:11:02.646Z,15.77
2022-09-15T06:12:02.727Z,15.79
2022-09-15T06:13:02.830Z,15.80
2022-09-15T06:14:02.552Z,15.82
2022-09-15T06:15:02.208Z,15.84
2022-09-15T06:16:02.451Z,15.85
2022-09-15T06:17:02.694Z,15.86
2022-09-15T06:18:02.872Z,15.87
2022-09-15T06:19:03.200Z,15.88
2022-09-15T06:20:03.280Z,15.89
2022-09-15T06:21:03.276Z,15.91
2022-09-15T06:22:02.619Z,15.91
2022-09-15T06:23:02.410Z,15.93
2022-09-15T06:24:02.465Z,15.94
2022-09-15T06:25:02.043Z,15.97
2022-09-15T06:26:02.073Z,15.98
2022-09-15T06:27:03.132Z,16.00
2022-09-15T06:28:02.818Z,16.03
2022-09-15T06:29:02.634Z,16.06
2022-09-15T06:30:03.126Z,16.08
2022-09-15T06:31:02.692Z,16.11
2022-09-15T06:32:03.583Z,16.11
2022-09-15T06:33:02.780Z,16.14
2022-09-15T06:34:02.817Z,16.15
2022-09-15T06:35:02.987Z,16.16
2022-09-15T06:36:03.009Z,16.18
2022-09-15T06:37:02.545Z,16.20
2022-09-15T06:38:02.835Z,16.23
2022-09-15T06:39:02.851Z,16.24
2022-09-15T06:40:03.004Z,16.26
2022-09-15T06:41:02.942Z,16.27
2022-09-15T06:42:04.858Z,16.28
2022-09-15T06:43:02.828Z,16.28
2022-09-15T06:44:02.742Z,16.31
2022-09-15T06:45:02.705Z,16.30
2022-09-15T06:46:03.077Z,16.31
2022-09-15T06:47:02.323Z,16.31
2022-09-15T06:48:23.540Z,16.34
2022-09-15T06:49:02.358Z,16.36
2022-09-15T06:50:02.663Z,16.35
2022-09-15T06:51:02.352Z,16.36
2022-09-15T06:52:02.385Z,16.38
2022-09-15T06:53:02.954Z,16.40
2022-09-15T06:54:02.939Z,16.40
2022-09-15T06:55:02.374Z,16.39
2022-09-15T06:56:02.734Z,16.39
2022-09-15T06:57:02.743Z,16.41
2022-09-15T06:58:03.141Z,16.42
2022-09-15T06:59:03.208Z,16.42
2022-09-15T07:00:02.853Z,16.42
2022-09-15T07:01:02.745Z,16.44
2022-09-15T07:02:05.092Z,16.44
2022-09-15T07:03:02.193Z,16.46
2022-09-15T07:04:02.145Z,16.49
2022-09-15T07:05:02.230Z,16.51
2022-09-15T07:06:02.021Z,16.52
2022-09-15T07:07:02.224Z,16.53
2022-09-15T07:08:02.453Z,16.54
2022-09-15T07:09:02.658Z,16.55
2022-09-15T07:10:02.361Z,16.55
2022-09-15T07:11:02.600Z,16.56
2022-09-15T07:12:01.926Z,16.60
2022-09-15T07:13:02.157Z,16.59
2022-09-15T07:14:02.163Z,16.58
2022-09-15T07:15:02.837Z,16.59
2022-09-15T07:16:01.953Z,16.59
2022-09-15T07:17:02.090Z,16.59
2022-09-15T07:18:02.139Z,16.60
2022-09-15T07:19:02.071Z,16.60
2022-09-15T07:20:02.113Z,16.61
2022-09-15T07:21:02.508Z,16.60
2022-09-15T07:22:02.769Z,16.62
2022-09-15T07:23:02.751Z,16.62
2022-09-15T07:24:07.060Z,16.64
2022-09-15T07:25:02.969Z,16.65
2022-09-15T07:26:02.745Z,16.67
2022-09-15T07:27:02.476Z,16.66
2022-09-15T07:28:02.420Z,16.66
2022-09-15T07:29:02.524Z,16.64
2022-09-15T07:30:02.312Z,16.65
2022-09-15T07:31:02.659Z,16.66
2022-09-15T07:32:02.837Z,16.67
2022-09-15T07:33:02.799Z,16.68
2022-09-15T07:34:02.720Z,16.69
2022-09-15T07:35:02.831Z,16.69
2022-09-15T07:36:02.340Z,16.70
2022-09-15T07:37:02.217Z,16.71
2022-09-15T07:38:02.573Z,16.74
2022-09-15T07:39:02.565Z,16.75
2022-09-15T07:40:02.711Z,16.76
2022-09-15T07:41:02.461Z,16.76
2022-09-15T07:42:02.505Z,16.75
2022-09-15T07:43:02.812Z,16.75
2022-09-15T07:44:02.578Z,16.78
2022-09-15T07:45:02.476Z,16.80
2022-09-15T07:46:02.549Z,16.78
2022-09-15T07:47:02.771Z,16.75
2022-09-15T07:48:02.689Z,16.73
2022-09-15T07:49:02.748Z,16.74
2022-09-15T07:50:02.949Z,16.74
2022-09-15T07:51:02.581Z,16.68
2022-09-15T07:52:02.791Z,16.66
2022-09-15T07:53:02.637Z,16.66
2022-09-15T07:54:02.724Z,16.66
2022-09-15T07:55:03.180Z,16.64
2022-09-15T07:56:03.016Z,16.62
2022-09-15T07:57:02.958Z,16.62
2022-09-15T07:58:02.909Z,16.64
2022-09-15T07:59:03.099Z,16.65
2022-09-15T08:00:03.130Z,16.66
2022-09-15T08:01:03.205Z,16.65
2022-09-15T08:02:02.172Z,16.65
2022-09-15T08:03:02.182Z,16.67
2022-09-15T08:04:02.480Z,16.71
2022-09-15T08:05:02.606Z,16.76
2022-09-15T08:06:01.994Z,16.80
2022-09-15T08:07:02.506Z,16.85
2022-09-15T08:08:02.786Z,16.87
2022-09-15T08:09:02.957Z,16.88
2022-09-15T08:10:02.555Z,16.90
2022-09-15T08:11:02.999Z,16.93
2022-09-15T08:12:02.861Z,16.97
2022-09-15T08:13:02.830Z,17.00
2022-09-15T08:14:03.112Z,16.99
2022-09-15T08:15:03.216Z,17.01
2022-09-15T08:16:03.279Z,17.00
2022-09-15T08:17:02.611Z,17.00
2022-09-15T08:18:02.609Z,17.02
2022-09-15T08:19:02.550Z,17.02
2022-09-15T08:20:02.563Z,17.06
2022-09-15T08:21:02.683Z,17.09
2022-09-15T08:22:02.792Z,17.10
2022-09-15T08:23:02.796Z,17.10
2022-09-15T08:24:02.458Z,17.12
2022-09-15T08:25:02.694Z,17.13
2022-09-15T08:26:02.709Z,17.16
2022-09-15T08:27:02.376Z,17.18
2022-09-15T08:28:02.392Z,17.19
2022-09-15T08:29:01.971Z,17.19
2022-09-15T08:30:02.447Z,17.22
2022-09-15T08:31:02.327Z,17.24
2022-09-15T08:32:03.031Z,17.27
2022-09-15T08:33:02.837Z,17.29
2022-09-15T08:34:03.166Z,17.33
2022-09-15T08:35:03.005Z,17.37
2022-09-15T08:36:03.041Z,17.40
2022-09-15T08:37:03.143Z,17.37
2022-09-15T08:38:02.830Z,17.35
2022-09-15T08:39:03.378Z,17.31
2022-09-15T08:40:03.054Z,17.32
2022-09-15T08:41:03.055Z,17.35
2022-09-15T08:42:02.868Z,17.38
2022-09-15T08:43:02.819Z,17.39
2022-09-15T08:44:02.608Z,17.43
2022-09-15T08:45:02.430Z,17.41
2022-09-15T08:46:02.597Z,17.43
2022-09-15T08:47:02.544Z,17.43
2022-09-15T08:48:02.407Z,17.47
2022-09-15T08:49:03.163Z,17.48
2022-09-15T08:50:02.474Z,17.50
2022-09-15T08:51:02.271Z,17.51
2022-09-15T08:52:03.136Z,17.53
2022-09-15T08:53:02.997Z,17.55
2022-09-15T08:54:02.821Z,17.59
2022-09-15T08:55:03.034Z,17.60
2022-09-15T08:56:05.383Z,17.62
2022-09-15T08:57:03.311Z,17.62
2022-09-15T08:58:03.293Z,17.65
2022-09-15T08:59:03.335Z,17.68
2022-09-15T09:00:02.881Z,17.70
2022-09-15T09:01:02.927Z,17.73
2022-09-15T09:02:02.793Z,17.76
2022-09-15T09:03:02.423Z,17.82
2022-09-15T09:04:02.829Z,17.87
2022-09-15T09:05:02.199Z,17.90
2022-09-15T09:06:02.805Z,17.96
2022-09-15T09:07:02.853Z,18.02
2022-09-15T09:08:02.762Z,18.06
2022-09-15T09:09:02.613Z,18.11
2022-09-15T09:10:02.708Z,18.15
2022-09-15T09:11:02.429Z,18.18
2022-09-15T09:12:03.214Z,18.20
2022-09-15T09:13:03.314Z,18.20
2022-09-15T09:14:03.306Z,18.23
2022-09-15T09:15:03.267Z,18.29
2022-09-15T09:16:03.326Z,18.30
2022-09-15T09:17:02.726Z,18.30
2022-09-15T09:18:02.668Z,18.34
2022-09-15T09:19:02.723Z,18.35
2022-09-15T09:20:02.551Z,18.36
2022-09-15T09:21:02.514Z,18.34
2022-09-15T09:22:02.805Z,18.35
2022-09-15T09:23:02.542Z,18.38
2022-09-15T09:24:02.561Z,18.40
2022-09-15T09:25:11.691Z,18.38
2022-09-15T09:26:02.533Z,18.42
2022-09-15T09:27:03.003Z,18.40
2022-09-15T09:28:02.878Z,18.35
2022-09-15T09:29:02.987Z,18.33
2022-09-15T09:30:02.494Z,18.27
2022-09-15T09:31:02.759Z,18.27
2022-09-15T09:32:03.045Z,18.25
2022-09-15T09:33:02.800Z,18.27
2022-09-15T09:34:02.616Z,18.25
2022-09-15T09:35:02.995Z,18.24
2022-09-15T09:36:02.949Z,18.20
2022-09-15T09:37:01.846Z,18.20
2022-09-15T09:38:02.328Z,18.17
2022-09-15T09:39:02.071Z,18.10
2022-09-15T09:40:02.010Z,18.06
2022-09-15T09:41:02.874Z,18.06
2022-09-15T09:42:01.951Z,18.08
2022-09-15T09:43:02.392Z,18.09
2022-09-15T09:44:02.039Z,18.06
2022-09-15T09:45:01.983Z,18.03
2022-09-15T09:46:02.594Z,18.00
2022-09-15T09:47:02.259Z,18.00
2022-09-15T09:48:02.589Z,17.99
2022-09-15T09:49:02.554Z,18.03
2022-09-15T09:50:02.686Z,18.09
2022-09-15T09:51:02.751Z,18.16
2022-09-15T09:52:02.790Z,18.20
2022-09-15T09:53:02.911Z,18.28
2022-09-15T09:54:02.918Z,18.34
2022-09-15T09:55:02.976Z,18.39
2022-09-15T09:56:03.027Z,18.44
2022-09-15T09:57:03.054Z,18.48
2022-09-15T09:58:02.149Z,18.49
2022-09-15T09:59:02.095Z,18.55
2022-09-15T10:00:02.583Z,18.53
2022-09-15T10:01:02.763Z,18.52
2022-09-15T10:02:02.687Z,18.56
2022-09-15T10:03:03.445Z,18.59
2022-09-15T10:04:02.968Z,18.61
2022-09-15T10:05:03.124Z,18.64
2022-09-15T10:06:02.922Z,18.66
2022-09-15T10:07:03.413Z,18.70
2022-09-15T10:08:03.093Z,18.68
2022-09-15T10:09:03.037Z,18.69
2022-09-15T10:10:02.937Z,18.66
2022-09-15T10:11:02.947Z,18.65
2022-09-15T10:12:03.007Z,18.65
2022-09-15T10:13:02.971Z,18.69
2022-09-15T10:14:02.939Z,18.73
2022-09-15T10:15:03.034Z,18.78
2022-09-15T10:16:03.179Z,18.82
2022-09-15T10:17:02.893Z,18.87
2022-09-15T10:18:03.718Z,18.90
2022-09-15T10:19:03.742Z,18.88
2022-09-15T10:20:03.786Z,18.90
2022-09-15T10:21:03.591Z,18.92
2022-09-15T10:22:03.854Z,18.93
2022-09-15T10:23:02.926Z,18.96
2022-09-15T10:24:02.842Z,19.00
2022-09-15T10:25:02.866Z,19.04
2022-09-15T10:26:02.644Z,19.10
2022-09-15T10:27:02.560Z,19.14
2022-09-15T10:28:03.049Z,19.15
2022-09-15T10:29:03.109Z,19.11
2022-09-15T10:30:02.922Z,19.06
2022-09-15T10:31:03.371Z,19.08
2022-09-15T10:32:03.456Z,19.10
2022-09-15T10:33:03.275Z,19.13
2022-09-15T10:34:03.001Z,19.14
2022-09-15T10:35:03.336Z,19.12
2022-09-15T10:36:03.426Z,19.14
2022-09-15T10:37:03.615Z,19.16
2022-09-15T10:38:03.482Z,19.15
2022-09-15T10:39:03.520Z,19.17
2022-09-15T10:40:03.630Z,19.14
2022-09-15T10:41:03.656Z,19.12
2022-09-15T10:42:03.685Z,19.12
2022-09-15T10:43:03.302Z,19.11
2022-09-15T10:44:03.291Z,19.15
2022-09-15T10:45:03.449Z,19.19
2022-09-15T10:46:03.534Z,19.11
2022-09-15T10:47:03.513Z,19.06
2022-09-15T10:48:03.692Z,19.02
2022-09-15T10:49:03.806Z,18.99
2022-09-15T10:50:03.800Z,18.99
2022-09-15T10:51:03.459Z,19.02
2022-09-15T10:52:03.565Z,19.03
2022-09-15T10:53:03.347Z,19.01
2022-09-15T10:54:03.351Z,18.97
2022-09-15T10:55:03.384Z,18.98
2022-09-15T10:56:03.660Z,19.02
2022-09-15T10:57:03.710Z,19.07
2022-09-15T10:58:03.614Z,19.14
2022-09-15T10:59:03.395Z,19.22
2022-09-15T11:00:03.362Z,19.24
2022-09-15T11:01:03.881Z,19.31
2022-09-15T11:02:03.426Z,19.34
2022-09-15T11:03:03.428Z,19.35
2022-09-15T11:04:02.847Z,19.36
2022-09-15T11:05:03.177Z,19.38
2022-09-15T11:06:03.120Z,19.43
2022-09-15T11:07:02.866Z,19.45
2022-09-15T11:08:02.287Z,19.50
2022-09-15T11:09:02.959Z,19.55
2022-09-15T11:10:02.498Z,19.58
2022-09-15T11:11:02.442Z,19.61
2022-09-15T11:12:02.811Z,19.65
2022-09-15T11:13:03.567Z,19.69
2022-09-15T11:14:03.622Z,19.73
2022-09-15T11:15:03.417Z,19.76
2022-09-15T11:16:03.675Z,19.79
2022-09-15T11:17:03.683Z,19.82
2022-09-15T11:18:03.259Z,19.84
2022-09-15T11:19:02.695Z,19.88
2022-09-15T11:20:02.700Z,19.91
2022-09-15T11:21:02.772Z,19.94
2022-09-15T11:22:02.686Z,19.97
2022-09-15T11:23:03.321Z,20.00
2022-09-15T11:24:03.065Z,20.05
2022-09-15T11:25:03.382Z,20.09
2022-09-15T11:26:02.976Z,20.13
2022-09-15T11:27:03.375Z,20.14
2022-09-15T11:28:03.145Z,20.11
2022-09-15T11:29:02.776Z,20.11
2022-09-15T11:30:02.855Z,20.13
2022-09-15T11:31:03.252Z,20.14
2022-09-15T11:33:03.255Z,20.14
2022-09-15T11:34:03.762Z,20.14
2022-09-15T11:35:03.729Z,20.11
2022-09-15T11:36:03.700Z,20.10
2022-09-15T11:37:03.350Z,20.12
2022-09-15T11:38:03.050Z,20.11
2022-09-15T11:39:02.795Z,20.04
2022-09-15T11:40:02.906Z,19.98
2022-09-15T11:41:02.708Z,19.89
2022-09-15T11:42:02.764Z,19.85
2022-09-15T11:43:03.450Z,19.82
2022-09-15T11:44:03.220Z,19.80
2022-09-15T11:45:02.894Z,19.81
2022-09-15T11:46:03.380Z,19.78
2022-09-15T11:47:03.461Z,19.73
2022-09-15T11:48:03.270Z,19.73
2022-09-15T11:49:03.879Z,19.72
2022-09-15T11:50:03.668Z,19.70
2022-09-15T11:51:03.410Z,19.67
2022-09-15T11:52:03.346Z,19.66
2022-09-15T11:53:02.787Z,19.65
2022-09-15T11:54:02.626Z,19.68
2022-09-15T11:55:02.548Z,19.67
2022-09-15T11:56:02.533Z,19.68
2022-09-15T11:57:02.439Z,19.67
2022-09-15T11:58:03.507Z,19.68
2022-09-15T11:59:03.038Z,19.70
2022-09-15T12:00:02.890Z,19.72
2022-09-15T12:01:02.983Z,19.72
2022-09-15T12:02:02.795Z,19.74
2022-09-15T12:03:02.198Z,19.76
2022-09-15T12:04:02.139Z,19.81
2022-09-15T12:05:02.075Z,19.84
2022-09-15T12:06:02.052Z,19.87
2022-09-15T12:07:02.168Z,19.90
2022-09-15T12:08:02.754Z,19.90
2022-09-15T12:09:02.499Z,19.93
2022-09-15T12:10:02.432Z,19.95
2022-09-15T12:11:02.346Z,20.01
2022-09-15T12:12:02.726Z,20.04
2022-09-15T12:13:02.657Z,20.07
2022-09-15T12:14:02.757Z,20.07
2022-09-15T12:15:03.067Z,20.04
2022-09-15T12:16:03.038Z,20.04
2022-09-15T12:17:02.846Z,19.97
2022-09-15T12:18:06.622Z,19.89
2022-09-15T12:19:02.100Z,19.85
2022-09-15T12:20:01.772Z,19.84
2022-09-15T12:21:01.759Z,19.84
2022-09-15T12:22:02.414Z,19.84
2022-09-15T12:23:02.548Z,19.85
2022-09-15T12:24:02.448Z,19.89
2022-09-15T12:25:02.421Z,19.93
2022-09-15T12:26:02.394Z,19.98
2022-09-15T12:27:02.285Z,19.99
2022-09-15T12:28:02.250Z,19.99
2022-09-15T12:29:02.804Z,19.95
2022-09-15T12:30:02.720Z,19.96
2022-09-15T12:31:02.771Z,19.98
2022-09-15T12:32:02.499Z,19.99
2022-09-15T12:33:02.565Z,20.01
2022-09-15T12:34:02.726Z,20.01
2022-09-15T12:35:02.649Z,20.01
2022-09-15T12:36:02.538Z,19.95
2022-09-15T12:37:03.118Z,19.93
2022-09-15T12:38:03.227Z,19.94
2022-09-15T12:39:03.406Z,19.91
2022-09-15T12:40:03.141Z,19.93
2022-09-15T12:41:03.377Z,19.94
2022-09-15T12:42:02.959Z,19.95
2022-09-15T12:43:02.102Z,19.97
2022-09-15T12:44:02.136Z,19.98
2022-09-15T12:45:01.901Z,20.02
2022-09-15T12:46:02.313Z,20.06
2022-09-15T12:47:02.530Z,20.13
2022-09-15T12:48:02.368Z,20.18
2022-09-15T12:49:02.616Z,20.25
2022-09-15T12:50:02.162Z,20.30
2022-09-15T12:51:02.170Z,20.34
2022-09-15T12:52:02.761Z,20.34
2022-09-15T12:53:02.641Z,20.38